createdAt,value
2022-09-06T00:01:47.589Z,64.87
2022-09-06T00:04:17.884Z,65.21
2022-09-06T00:06:48.074Z,65.64
2022-09-06T00:09:19.330Z,66.32
2022-09-06T00:11:49.491Z,67.00
2022-09-06T00:14:19.654Z,66.71
2022-09-06T00:16:49.563Z,67.21
2022-09-06T00:19:19.407Z,67.48
2022-09-06T00:21:49.335Z,67.89
2022-09-06T00:24:20.820Z,66.75
2022-09-06T00:26:50.726Z,67.76
2022-09-06T00:29:20.688Z,67.33
2022-09-06T00:31:50.881Z,66.71
2022-09-06T00:34:20.884Z,66.89
2022-09-06T00:36:50.829Z,66.13
2022-09-06T00:39:22.160Z,66.80
2022-09-06T00:41:52.542Z,66.48
2022-09-06T00:44:22.543Z,66.65
2022-09-06T00:46:55.061Z,67.17
2022-09-06T00:49:27.249Z,66.65
2022-09-06T00:52:00.835Z,66.48
2022-09-06T00:54:32.792Z,66.32
2022-09-06T00:57:03.196Z,67.12
2022-09-06T00:59:36.547Z,66.82
2022-09-06T01:02:07.284Z,66.56
2022-09-06T01:04:39.651Z,66.47
2022-09-06T01:07:20.440Z,66.96
2022-09-06T01:10:07.512Z,66.84
2022-09-06T01:12:47.836Z,67.11
2022-09-06T01:15:30.023Z,66.15
2022-09-06T01:18:14.104Z,66.81
2022-09-06T01:20:54.306Z,66.57
2022-09-06T01:24:08.007Z,67.21
2022-09-06T01:27:12.799Z,67.60
2022-09-06T01:29:49.463Z,67.76
2022-09-06T01:32:27.530Z,67.98
2022-09-06T01:35:06.933Z,67.35
2022-09-06T01:37:37.433Z,68.25
2022-09-06T01:40:08.731Z,69.31
2022-09-06T01:42:41.632Z,69.02
2022-09-06T01:45:17.168Z,68.94
2022-09-06T01:47:55.924Z,68.98
2022-09-06T01:50:38.344Z,69.14
2022-09-06T01:53:17.955Z,69.40
2022-09-06T01:55:55.882Z,69.58
2022-09-06T01:58:42.243Z,69.21
2022-09-06T02:01:21.775Z,68.88
2022-09-06T02:03:59.466Z,68.87
2022-09-06T02:06:32.016Z,69.75
2022-09-06T02:09:07.667Z,69.70
2022-09-06T02:11:43.148Z,69.81
2022-09-06T02:14:19.953Z,69.37
2022-09-06T02:16:55.042Z,69.17
2022-09-06T02:19:32.948Z,68.97
2022-09-06T02:22:06.475Z,68.81
2022-09-06T02:24:40.775Z,68.93
2022-09-06T02:27:10.792Z,68.98
2022-09-06T02:29:40.802Z,68.61
2022-09-06T02:32:18.937Z,68.99
2022-09-06T02:34:49.265Z,68.93
2022-09-06T02:37:20.548Z,68.59
2022-09-06T02:39:50.541Z,68.84
2022-09-06T02:42:20.491Z,69.00
2022-09-06T02:44:50.565Z,68.93
2022-09-06T02:47:21.832Z,69.05
2022-09-06T02:49:51.739Z,69.81
2022-09-06T02:52:21.926Z,70.14
2022-09-06T02:54:51.991Z,70.26
2022-09-06T02:57:21.903Z,69.99
2022-09-06T02:59:52.079Z,69.90
2022-09-06T03:02:23.423Z,70.21
2022-09-06T03:04:53.595Z,70.21
2022-09-06T03:07:23.459Z,70.07
2022-09-06T03:09:53.553Z,69.33
2022-09-06T03:12:23.717Z,69.76
2022-09-06T03:14:55.144Z,69.56
2022-09-06T03:17:27.367Z,69.89
2022-09-06T03:19:57.738Z,69.80
2022-09-06T03:22:27.689Z,69.57
2022-09-06T03:24:57.607Z,70.23
2022-09-06T03:27:27.568Z,70.22
2022-09-06T03:29:57.825Z,69.99
2022-09-06T03:32:29.207Z,70.54
2022-09-06T03:35:00.551Z,70.67
2022-09-06T03:37:30.532Z,70.68
2022-09-06T03:40:00.906Z,70.89
2022-09-06T03:42:30.900Z,70.29
2022-09-06T03:45:02.751Z,70.42
2022-09-06T03:47:34.247Z,70.71
2022-09-06T03:50:04.323Z,70.40
2022-09-06T03:52:34.511Z,71.07
2022-09-06T03:55:05.274Z,70.81
2022-09-06T03:57:35.475Z,70.91
2022-09-06T04:00:06.183Z,70.93
2022-09-06T04:02:38.190Z,70.02
2022-09-06T04:05:08.848Z,70.55
2022-09-06T04:07:38.804Z,70.69
2022-09-06T04:10:09.351Z,70.30
2022-09-06T04:12:39.375Z,71.42
2022-09-06T04:15:10.930Z,71.72
2022-09-06T04:17:45.272Z,71.60
2022-09-06T04:20:15.923Z,71.86
2022-09-06T04:22:45.765Z,71.70
2022-09-06T04:25:15.992Z,71.84
2022-09-06T04:27:46.059Z,72.01
2022-09-06T04:30:15.949Z,71.75
2022-09-06T04:32:47.401Z,71.17
2022-09-06T04:35:17.508Z,70.95
2022-09-06T04:37:47.331Z,70.66
2022-09-06T04:40:17.384Z,70.87
2022-09-06T04:42:47.292Z,71.14
2022-09-06T04:45:17.246Z,71.46
2022-09-06T04:47:50.404Z,71.46
2022-09-06T04:50:20.485Z,71.25
2022-09-06T04:52:50.367Z,71.21
2022-09-06T04:55:20.524Z,71.50
2022-09-06T04:57:51.308Z,71.57
2022-09-06T05:00:21.571Z,72.11
2022-09-06T05:02:52.773Z,72.54
2022-09-06T05:05:23.470Z,71.54
2022-09-06T05:07:54.152Z,72.31
2022-09-06T05:10:24.778Z,70.98
2022-09-06T05:12:55.808Z,71.14
2022-09-06T05:15:26.505Z,70.93
2022-09-06T05:18:04.994Z,70.94
2022-09-06T05:20:35.135Z,69.92
2022-09-06T05:23:05.002Z,70.27
2022-09-06T05:25:35.059Z,69.67
2022-09-06T05:28:05.065Z,69.37
2022-09-06T05:30:36.035Z,69.11
2022-09-06T05:33:07.587Z,68.31
2022-09-06T05:35:37.844Z,68.24
2022-09-06T05:38:07.887Z,68.69
2022-09-06T05:40:37.901Z,68.14
2022-09-06T05:43:07.878Z,68.84
2022-09-06T05:45:37.989Z,69.41
2022-09-06T05:48:09.761Z,69.45
2022-09-06T05:50:39.786Z,69.36
2022-09-06T05:53:10.216Z,69.24
2022-09-06T05:55:42.861Z,68.61
2022-09-06T05:58:13.128Z,68.74
2022-09-06T06:00:43.686Z,68.26
2022-09-06T06:03:14.859Z,68.04
2022-09-06T06:05:47.903Z,67.47
2022-09-06T06:08:17.804Z,66.86
2022-09-06T06:10:47.703Z,67.08
2022-09-06T06:13:17.623Z,66.51
2022-09-06T06:15:47.581Z,66.44
2022-09-06T06:18:19.983Z,67.24
2022-09-06T06:20:50.647Z,66.98
2022-09-06T06:23:20.560Z,66.25
2022-09-06T06:25:50.759Z,65.84
2022-09-06T06:28:20.740Z,65.77
2022-09-06T06:30:51.129Z,65.36
2022-09-06T06:33:22.431Z,64.80
2022-09-06T06:36:00.103Z,63.89
2022-09-06T06:38:33.790Z,63.87
2022-09-06T06:41:06.807Z,63.52
2022-09-06T06:43:38.722Z,63.00
2022-09-06T06:46:10.561Z,63.03
2022-09-06T06:48:43.410Z,62.43
2022-09-06T06:51:15.755Z,62.73
2022-09-06T06:53:47.527Z,62.76
2022-09-06T06:56:20.207Z,62.52
2022-09-06T06:58:52.476Z,61.83
2022-09-06T07:01:24.270Z,61.60
2022-09-06T07:03:55.988Z,61.10
2022-09-06T07:09:19.388Z,60.88
2022-09-06T07:11:50.011Z,59.71
2022-09-06T07:14:20.451Z,59.36
2022-09-06T07:16:51.837Z,59.25
2022-09-06T07:22:13.761Z,58.96
2022-09-06T07:24:43.947Z,58.67
2022-09-06T07:30:03.886Z,59.15
2022-09-06T07:32:35.817Z,59.08
2022-09-06T07:35:08.338Z,59.17
2022-09-06T07:37:38.312Z,58.98
2022-09-06T07:40:09.847Z,59.13
2022-09-06T07:42:39.804Z,58.33
2022-09-06T07:45:10.858Z,57.59
2022-09-06T07:53:30.827Z,55.79
2022-09-06T07:56:01.733Z,55.11
2022-09-06T07:58:32.174Z,53.32
2022-09-06T08:01:28.338Z,52.79
2022-09-06T08:04:00.599Z,52.85
2022-09-06T08:09:24.077Z,52.45
2022-09-06T08:11:54.142Z,52.50
2022-09-06T08:14:24.260Z,51.37
2022-09-06T08:16:56.544Z,51.51
2022-09-06T08:19:27.016Z,51.19
2022-09-06T08:21:58.229Z,50.45
2022-09-06T08:24:28.200Z,51.09
2022-09-06T08:26:58.239Z,50.53
2022-09-06T08:29:28.366Z,50.91
2022-09-06T08:31:58.778Z,50.20
2022-09-06T08:34:28.824Z,49.82
2022-09-06T08:37:00.361Z,48.72
2022-09-06T08:39:30.414Z,48.13
2022-09-06T08:42:04.136Z,49.49
2022-09-06T08:47:27.894Z,49.09
2022-09-06T08:50:03.331Z,48.50
2022-09-06T08:53:18.081Z,47.75
2022-09-06T08:55:55.961Z,47.91
2022-09-06T08:58:44.449Z,49.01
2022-09-06T09:01:19.183Z,48.76
2022-09-06T09:03:49.085Z,49.11
2022-09-06T09:06:19.413Z,49.23
2022-09-06T09:09:01.686Z,48.92
2022-09-06T09:11:33.541Z,48.46
2022-09-06T09:14:07.123Z,47.62
2022-09-06T09:16:37.327Z,46.77
2022-09-06T09:19:09.438Z,46.97
2022-09-06T09:21:41.585Z,46.47
2022-09-06T09:24:15.584Z,46.69
2022-09-06T09:26:51.987Z,46.92
2022-09-06T09:29:27.443Z,46.84
2022-09-06T09:31:58.970Z,46.83
2022-09-06T09:34:33.376Z,46.75
2022-09-06T09:40:06.981Z,46.65
2022-09-06T09:42:38.574Z,46.94
2022-09-06T09:45:25.052Z,45.77
2022-09-06T09:47:55.220Z,45.70
2022-09-06T09:50:29.009Z,45.57
2022-09-06T09:53:09.015Z,46.25
2022-09-06T09:55:41.202Z,46.62
2022-09-06T09:58:22.672Z,46.22
2022-09-06T10:01:10.951Z,45.73
2022-09-06T10:09:22.927Z,46.06
2022-09-06T10:12:00.005Z,45.96
2022-09-06T10:14:32.968Z,45.99
2022-09-06T10:17:02.796Z,45.90
2022-09-06T10:19:40.907Z,46.29
2022-09-06T10:22:23.424Z,45.56
2022-09-06T10:25:24.393Z,45.91
2022-09-06T10:28:29.543Z,46.13
2022-09-06T10:31:47.626Z,45.93
2022-09-06T10:34:52.856Z,46.87
2022-09-06T10:37:37.640Z,46.26
2022-09-06T10:40:10.314Z,46.59
2022-09-06T10:42:45.242Z,46.57
2022-09-06T10:45:28.452Z,46.37
2022-09-06T10:48:03.102Z,46.59
2022-09-06T10:50:42.672Z,46.23
2022-09-06T10:53:19.023Z,46.34
2022-09-06T10:55:54.024Z,46.27
2022-09-06T11:01:34.273Z,45.17
2022-09-06T11:04:12.561Z,44.51
2022-09-06T11:06:46.547Z,44.69
2022-09-06T11:09:20.211Z,44.53
2022-09-06T11:11:54.722Z,44.72
2022-09-06T11:14:28.539Z,44.92
2022-09-06T11:17:05.086Z,43.90
2022-09-06T11:19:44.264Z,44.46
2022-09-06T11:22:40.626Z,43.34
2022-09-06T11:25:54.974Z,43.02
2022-09-06T11:28:33.599Z,43.24
2022-09-06T11:31:05.240Z,43.43
2022-09-06T11:33:39.875Z,43.87
2022-09-06T11:36:31.310Z,44.72
2022-09-06T11:39:03.432Z,42.35
2022-09-06T11:41:35.969Z,42.38
2022-09-06T11:44:06.715Z,42.01
2022-09-06T11:46:58.877Z,42.67
2022-09-06T11:49:37.320Z,41.91
2022-09-06T11:52:59.422Z,42.30
2022-09-06T11:55:38.489Z,42.09
2022-09-06T11:58:21.405Z,42.78
2022-09-06T12:01:24.790Z,42.83
2022-09-06T12:04:10.429Z,42.22
2022-09-06T12:06:44.094Z,42.13
2022-09-06T12:09:34.474Z,40.49
2022-09-06T12:12:05.002Z,41.50
2022-09-06T12:14:40.807Z,40.77
2022-09-06T12:17:28.916Z,41.53
2022-09-06T12:20:06.797Z,41.20
2022-09-06T12:23:05.739Z,41.59
2022-09-06T12:25:58.899Z,41.95
2022-09-06T12:28:34.752Z,42.23
2022-09-06T12:31:34.351Z,42.18
2022-09-06T12:34:10.133Z,40.86
2022-09-06T12:36:50.721Z,41.23
2022-09-06T12:39:22.379Z,41.28
2022-09-06T12:41:56.087Z,41.06
2022-09-06T12:44:30.344Z,40.87
2022-09-06T12:47:05.824Z,41.17
2022-09-06T12:49:35.883Z,40.72
2022-09-06T12:52:10.835Z,40.65
2022-09-06T12:54:48.067Z,40.42
2022-09-06T12:57:22.804Z,40.48
2022-09-06T12:59:54.832Z,41.02
2022-09-06T13:02:33.617Z,41.34
2022-09-06T13:05:07.154Z,41.06
2022-09-06T13:07:42.212Z,41.41
2022-09-06T13:10:16.276Z,41.47
2022-09-06T13:12:50.480Z,41.38
2022-09-06T13:15:25.150Z,41.66
2022-09-06T13:17:56.719Z,41.58
2022-09-06T13:20:29.484Z,41.75
2022-09-06T13:23:11.640Z,41.38
2022-09-06T13:25:50.826Z,41.44
2022-09-06T13:28:28.924Z,41.70
2022-09-06T13:31:11.206Z,42.07
2022-09-06T13:33:42.992Z,41.14
2022-09-06T13:36:23.906Z,40.67
2022-09-06T13:38:53.815Z,42.03
2022-09-06T13:41:40.711Z,41.08
2022-09-06T13:44:31.385Z,41.17
2022-09-06T13:47:01.264Z,41.41
2022-09-06T13:49:31.504Z,40.37
2022-09-06T13:52:03.113Z,39.92
2022-09-06T13:54:34.145Z,39.93
2022-09-06T13:57:05.571Z,40.67
2022-09-06T13:59:35.523Z,40.07
2022-09-06T14:02:08.409Z,41.10
2022-09-06T14:04:38.840Z,41.59
2022-09-06T14:07:09.019Z,41.35
2022-09-06T14:09:39.270Z,41.30
2022-09-06T14:12:41.703Z,39.47
2022-09-06T14:15:13.421Z,38.76
2022-09-06T14:17:43.766Z,39.08
2022-09-06T14:20:14.327Z,38.82
2022-09-06T14:22:44.359Z,38.93
2022-09-06T14:25:14.716Z,39.11
2022-09-06T14:27:48.551Z,40.07
2022-09-06T14:30:18.788Z,38.89
2022-09-06T14:32:48.531Z,39.11
2022-09-06T14:35:18.711Z,38.98
2022-09-06T14:37:50.894Z,39.72
2022-09-06T14:40:36.332Z,39.39
2022-09-06T14:43:07.661Z,40.41
2022-09-06T14:45:38.027Z,38.37
2022-09-06T14:48:08.078Z,38.77
2022-09-06T14:50:38.372Z,39.27
2022-09-06T14:53:39.819Z,37.93
2022-09-06T14:56:11.791Z,38.15
2022-09-06T14:58:43.909Z,38.90
2022-09-06T15:01:15.612Z,39.67
2022-09-06T15:03:48.668Z,39.86
2022-09-06T15:06:20.725Z,39.34
2022-09-06T15:08:52.845Z,39.54
2022-09-06T15:11:31.212Z,39.87
2022-09-06T15:14:04.289Z,39.16
2022-09-06T15:16:35.251Z,39.76
2022-09-06T15:19:05.627Z,39.97
2022-09-06T15:21:36.537Z,39.14
2022-09-06T15:24:11.704Z,39.63
2022-09-06T15:26:49.745Z,39.70
2022-09-06T15:29:23.952Z,38.38
2022-09-06T15:32:02.750Z,38.82
2022-09-06T15:34:35.551Z,38.93
2022-09-06T15:37:23.651Z,38.31
2022-09-06T15:40:13.171Z,38.88
2022-09-06T15:42:44.231Z,38.07
2022-09-06T15:45:15.836Z,38.65
2022-09-06T15:47:46.069Z,39.17
2022-09-06T15:50:29.102Z,39.05
2022-09-06T15:53:06.170Z,39.15
2022-09-06T15:55:53.443Z,44.14
2022-09-06T15:58:23.609Z,44.60
2022-09-06T16:01:07.139Z,48.86
2022-09-06T16:03:39.307Z,44.42
2022-09-06T16:06:27.995Z,43.97
2022-09-06T16:09:01.055Z,47.92
2022-09-06T16:11:32.735Z,46.63
2022-09-06T16:14:03.703Z,44.94
2022-09-06T16:16:35.942Z,40.50
2022-09-06T16:19:05.971Z,43.52
2022-09-06T16:21:39.065Z,44.01
2022-09-06T16:24:11.945Z,40.93
2022-09-06T16:26:46.145Z,42.42
2022-09-06T16:29:20.346Z,43.67
2022-09-06T16:31:56.674Z,40.64
2022-09-06T16:34:27.934Z,40.90
2022-09-06T16:36:58.283Z,41.83
2022-09-06T16:39:28.281Z,43.11
2022-09-06T16:41:58.429Z,42.03
2022-09-06T16:44:29.060Z,42.08
2022-09-06T16:47:03.986Z,43.21
2022-09-06T16:49:33.916Z,42.59
2022-09-06T16:52:04.321Z,44.25
2022-09-06T16:54:34.254Z,41.90
2022-09-06T16:57:04.591Z,42.70
2022-09-06T16:59:34.538Z,42.61
2022-09-06T17:02:06.746Z,42.94
2022-09-06T17:04:36.785Z,42.52
2022-09-06T17:07:07.144Z,45.24
2022-09-06T17:09:37.095Z,42.27
2022-09-06T17:12:07.592Z,42.11
2022-09-06T17:14:38.067Z,43.82
2022-09-06T17:17:10.075Z,43.06
2022-09-06T17:19:42.128Z,42.25
2022-09-06T17:22:13.440Z,42.66
2022-09-06T17:24:43.751Z,42.42
2022-09-06T17:27:13.863Z,42.49
2022-09-06T17:29:44.834Z,42.88
2022-09-06T17:32:16.305Z,42.18
2022-09-06T17:34:46.267Z,41.86
2022-09-06T17:37:16.481Z,42.37
2022-09-06T17:39:46.463Z,42.34
2022-09-06T17:42:16.875Z,43.54
2022-09-06T17:44:46.904Z,43.10
2022-09-06T17:47:19.406Z,43.41
2022-09-06T17:49:49.688Z,42.95
2022-09-06T17:52:19.730Z,43.89
2022-09-06T17:54:49.784Z,43.60
2022-09-06T17:57:20.125Z,43.20
2022-09-06T17:59:50.405Z,43.37
2022-09-06T18:02:21.964Z,43.69
2022-09-06T18:04:52.258Z,42.95
2022-09-06T18:07:22.457Z,43.50
2022-09-06T18:09:52.518Z,43.38
2022-09-06T18:12:22.925Z,43.32
2022-09-06T18:14:53.494Z,43.66
2022-09-06T18:17:25.115Z,44.02
2022-09-06T18:19:55.904Z,44.33
2022-09-06T18:22:26.001Z,44.39
2022-09-06T18:24:58.345Z,43.99
2022-09-06T18:27:28.467Z,44.72
2022-09-06T18:29:58.527Z,44.10
2022-09-06T18:32:30.345Z,44.05
2022-09-06T18:35:00.662Z,44.30
2022-09-06T18:37:31.019Z,43.57
2022-09-06T18:40:01.522Z,43.55
2022-09-06T18:42:31.933Z,43.44
2022-09-06T18:45:02.084Z,43.87
2022-09-06T18:47:33.706Z,44.39
2022-09-06T18:50:05.218Z,43.31
2022-09-06T18:52:35.406Z,43.41
2022-09-06T18:55:08.544Z,43.94
2022-09-06T18:57:38.638Z,43.36
2022-09-06T19:00:10.391Z,44.02
2022-09-06T19:02:42.361Z,43.58
2022-09-06T19:05:13.964Z,42.70
2022-09-06T19:07:46.041Z,42.87
2022-09-06T19:10:16.259Z,43.16
2022-09-06T19:12:51.323Z,42.91
2022-09-06T19:15:24.111Z,42.73
2022-09-06T19:17:57.369Z,42.43
2022-09-06T19:20:27.646Z,42.10
2022-09-06T19:22:58.121Z,41.43
2022-09-06T19:25:28.965Z,41.78
2022-09-06T19:27:59.310Z,41.78
2022-09-06T19:30:30.052Z,41.59
2022-09-06T19:33:02.588Z,41.58
2022-09-06T19:35:43.739Z,41.13
2022-09-06T19:38:26.135Z,40.68
2022-09-06T19:41:03.046Z,41.11
2022-09-06T19:43:33.939Z,41.23
2022-09-06T19:46:04.990Z,41.35
2022-09-06T19:48:38.567Z,41.66
2022-09-06T19:51:12.799Z,41.29
2022-09-06T19:53:44.354Z,41.71
2022-09-06T19:56:17.018Z,41.96
2022-09-06T19:58:47.191Z,41.63
2022-09-06T20:01:20.630Z,41.81
2022-09-06T20:03:53.024Z,41.88
2022-09-06T20:06:23.650Z,41.83
2022-09-06T20:08:59.453Z,42.10
2022-09-06T20:11:33.371Z,42.28
2022-09-06T20:14:03.805Z,42.33
2022-09-06T20:16:37.100Z,42.33
2022-09-06T20:19:14.573Z,42.84
2022-09-06T20:21:44.779Z,43.00
2022-09-06T20:24:14.686Z,43.45
2022-09-06T20:26:44.635Z,43.49
2022-09-06T20:29:14.529Z,43.89
2022-09-06T20:31:44.606Z,44.31
2022-09-06T20:34:19.482Z,44.29
2022-09-06T20:36:50.035Z,44.43
2022-09-06T20:39:20.011Z,44.60
2022-09-06T20:41:49.904Z,44.55
2022-09-06T20:44:19.841Z,44.87
2022-09-06T20:46:49.901Z,45.31
2022-09-06T20:49:23.120Z,45.59
2022-09-06T20:52:11.184Z,45.84
2022-09-06T20:54:41.347Z,46.07
2022-09-06T20:57:12.295Z,46.60
2022-09-06T20:59:42.378Z,46.91
2022-09-06T21:02:12.368Z,47.12
2022-09-06T21:04:43.756Z,47.38
2022-09-06T21:07:14.394Z,47.38
2022-09-06T21:09:44.338Z,47.24
2022-09-06T21:12:14.315Z,47.49
2022-09-06T21:14:44.492Z,47.65
2022-09-06T21:17:15.013Z,47.88
2022-09-06T21:19:46.554Z,48.03
2022-09-06T21:22:18.129Z,48.31
2022-09-06T21:24:48.906Z,48.49
2022-09-06T21:27:18.917Z,48.86
2022-09-06T21:29:48.987Z,49.12
2022-09-06T21:32:18.927Z,49.39
2022-09-06T21:34:50.282Z,49.64
2022-09-06T21:37:21.292Z,49.97
2022-09-06T21:39:51.216Z,50.05
2022-09-06T21:42:21.201Z,50.52
2022-09-06T21:44:51.091Z,50.71
2022-09-06T21:47:21.162Z,50.93
2022-09-06T21:49:52.452Z,50.99
2022-09-06T21:52:22.415Z,50.97
2022-09-06T21:54:52.327Z,51.13
2022-09-06T21:57:22.301Z,51.00
2022-09-06T21:59:52.427Z,50.97
2022-09-06T22:02:23.672Z,51.66
2022-09-06T22:04:55.171Z,51.51
2022-09-06T22:07:25.270Z,51.66
2022-09-06T22:09:56.093Z,52.08
2022-09-06T22:12:26.078Z,52.48
2022-09-06T22:14:56.676Z,52.66
2022-09-06T22:17:26.781Z,52.50
2022-09-06T22:19:58.249Z,52.88
2022-09-06T22:22:28.470Z,53.31
2022-09-06T22:24:58.490Z,53.33
2022-09-06T22:27:28.471Z,53.33
2022-09-06T22:29:58.453Z,53.72
2022-09-06T22:32:28.479Z,54.06
2022-09-06T22:34:59.917Z,53.64
2022-09-06T22:37:29.938Z,53.70
2022-09-06T22:40:02.109Z,53.38
2022-09-06T22:42:32.256Z,53.94
2022-09-06T22:45:03.674Z,54.24
2022-09-06T22:47:33.937Z,53.81
2022-09-06T22:50:06.834Z,53.82
2022-09-06T22:52:36.760Z,54.31
2022-09-06T22:55:07.679Z,54.10
2022-09-06T22:57:37.680Z,54.07
2022-09-06T23:00:09.310Z,54.24
2022-09-06T23:02:39.268Z,53.65
2022-09-06T23:05:10.914Z,53.88
2022-09-06T23:07:43.409Z,54.07
2022-09-06T23:10:13.375Z,53.63
2022-09-06T23:12:43.395Z,53.35
2022-09-06T23:15:14.039Z,53.46
2022-09-06T23:17:45.624Z,53.20
2022-09-06T23:20:17.499Z,52.85
2022-09-06T23:22:48.316Z,53.21
2022-09-06T23:25:18.456Z,52.98
2022-09-06T23:27:48.880Z,53.71
2022-09-06T23:30:19.112Z,53.52
2022-09-06T23:32:49.170Z,53.43
2022-09-06T23:35:20.589Z,53.58
2022-09-06T23:37:51.240Z,53.67
2022-09-06T23:40:21.761Z,53.88
2022-09-06T23:42:51.784Z,54.61
2022-09-06T23:45:21.799Z,54.33
2022-09-06T23:47:51.848Z,53.71
2022-09-06T23:50:23.336Z,54.54
2022-09-06T23:52:53.274Z,53.93
2022-09-06T23:55:24.690Z,53.99
2022-09-06T23:57:54.695Z,54.30
